Time;durP1;ratioP1;P1;durP2;ratioP2;P2;SDS_P1;SDS_P2;PMS_P1;PMS_P2;Temp;Humidity;BMP_temperature;BMP_pressure;BME280_temperature;BME280_humidity;BME280_pressure;Samples;Min_cycle;Max_cycle;Signal;HPM_P1;HPM_P2
2024/03/24 00:01:29;;;;;;;;;;;5.10;99.90;;;;;;5050587;28;19909;-67
2024/03/24 00:03:54;;;;;;;;;;;5.20;99.90;;;;;;5049579;28;20312;-67
2024/03/24 00:06:20;;;;;;;;;;;5.20;99.90;;;;;;5049039;28;19912;-66
2024/03/24 00:08:45;;;;;;;;;;;5.30;99.90;;;;;;5050013;28;19963;-67
2024/03/24 00:11:11;;;;;;;;;;;5.40;99.90;;;;;;5049522;28;19905;-67
2024/03/24 00:13:36;;;;;;;;;;;5.50;99.90;;;;;;5050134;28;19905;-67
2024/03/24 00:16:02;;;;;;;;;;;5.50;99.90;;;;;;5049061;28;19955;-67
2024/03/24 00:18:27;;;;;;;;;;;5.60;99.90;;;;;;5049254;28;20407;-67
2024/03/24 00:20:53;;;;;;;;;;;5.60;99.90;;;;;;5050266;28;19971;-67
2024/03/24 00:23:18;;;;;;;;;;;5.70;99.90;;;;;;5049379;28;19908;-67
2024/03/24 00:25:44;;;;;;;;;;;5.70;99.90;;;;;;5048070;28;19999;-67
2024/03/24 00:28:09;;;;;;;;;;;5.70;99.90;;;;;;5049847;28;19909;-67
2024/03/24 00:30:35;;;;;;;;;;;5.70;99.90;;;;;;5049638;28;20391;-66
2024/03/24 00:33:00;;;;;;;;;;;5.70;99.90;;;;;;5050516;28;19991;-67
2024/03/24 00:35:26;;;;;;;;;;;5.80;99.90;;;;;;5050189;28;20554;-66
2024/03/24 00:37:51;;;;;;;;;;;5.80;99.90;;;;;;5048752;28;19912;-66
2024/03/24 00:40:17;;;;;;;;;;;5.80;99.90;;;;;;5050200;28;19909;-66
2024/03/24 00:42:43;;;;;;;;;;;5.80;99.90;;;;;;5049238;28;19912;-66
2024/03/24 00:45:09;;;;;;;;;;;5.80;99.90;;;;;;5049181;28;19912;-66
2024/03/24 00:47:34;;;;;;;;;;;5.90;99.90;;;;;;5049120;28;19908;-66
2024/03/24 00:50:00;;;;;;;;;;;5.80;99.90;;;;;;5049316;28;19905;-67
2024/03/24 00:52:26;;;;;;;;;;;5.80;99.90;;;;;;5049098;28;20383;-67
2024/03/24 00:54:51;;;;;;;;;;;5.90;99.90;;;;;;5049558;28;19966;-67
2024/03/24 00:57:16;;;;;;;;;;;5.80;99.90;;;;;;5047853;28;19936;-67
2024/03/24 00:59:42;;;;;;;;;;;5.70;99.90;;;;;;5049335;28;19970;-67
2024/03/24 01:02:07;;;;;;;;;;;5.70;99.90;;;;;;5048868;28;19920;-67
2024/03/24 01:04:33;;;;;;;;;;;5.70;99.90;;;;;;5048374;28;19907;-66
2024/03/24 01:06:58;;;;;;;;;;;5.60;99.90;;;;;;5048480;28;19909;-66
2024/03/24 01:09:24;;;;;;;;;;;5.60;99.90;;;;;;5048561;28;19909;-67
2024/03/24 01:11:49;;;;;;;;;;;5.60;99.90;;;;;;5050398;28;19991;-66
2024/03/24 01:14:15;;;;;;;;;;;5.60;99.90;;;;;;5050241;28;19912;-67
2024/03/24 01:16:40;;;;;;;;;;;5.60;99.90;;;;;;5047423;28;20300;-66
2024/03/24 01:19:06;;;;;;;;;;;5.60;99.90;;;;;;5048682;28;20371;-66
2024/03/24 01:21:31;;;;;;;;;;;5.70;99.90;;;;;;5048666;28;19985;-67
2024/03/24 01:23:58;;;;;;;;;;;5.70;99.90;;;;;;5048260;28;19905;-67
2024/03/24 01:26:24;;;;;;;;;;;5.70;99.90;;;;;;5048418;28;19917;-67
2024/03/24 01:28:49;;;;;;;;;;;5.60;99.90;;;;;;5048421;28;19904;-67
2024/03/24 01:31:15;;;;;;;;;;;5.80;99.90;;;;;;5048081;28;19905;-66
2024/03/24 01:33:40;;;;;;;;;;;5.70;99.90;;;;;;5048778;28;19978;-67
2024/03/24 01:36:06;;;;;;;;;;;5.70;99.90;;;;;;5046675;28;19909;-66
2024/03/24 01:38:32;;;;;;;;;;;5.60;99.90;;;;;;5047539;28;19905;-67
2024/03/24 01:40:57;;;;;;;;;;;5.70;99.90;;;;;;5048512;28;19954;-66
2024/03/24 01:43:24;;;;;;;;;;;5.70;99.90;;;;;;5047855;28;19908;-67
2024/03/24 01:45:50;;;;;;;;;;;5.70;99.90;;;;;;5047563;28;19905;-67
2024/03/24 01:48:16;;;;;;;;;;;5.70;99.90;;;;;;5048137;28;19963;-67
2024/03/24 01:50:41;;;;;;;;;;;5.80;99.90;;;;;;5047512;28;19905;-66
2024/03/24 01:53:08;;;;;;;;;;;5.80;99.90;;;;;;5048321;28;20356;-67
2024/03/24 01:55:34;;;;;;;;;;;5.70;99.90;;;;;;5047861;28;20590;-67
2024/03/24 01:57:59;;;;;;;;;;;5.70;99.90;;;;;;5046868;28;19955;-67
2024/03/24 02:00:25;;;;;;;;;;;6.20;99.90;;;;;;5048426;28;20322;-67
2024/03/24 02:02:50;;;;;;;;;;;5.70;99.90;;;;;;5047558;28;19904;-66
2024/03/24 02:05:25;;;;;;;;;;;5.70;99.90;;;;;;5047502;28;20319;-67
2024/03/24 02:07:51;;;;;;;;;;;5.70;99.90;;;;;;5046930;28;19909;-67
2024/03/24 02:10:16;;;;;;;;;;;5.60;99.90;;;;;;5048186;28;20000;-67
2024/03/24 02:12:42;;;;;;;;;;;5.70;99.90;;;;;;5048103;28;19935;-66
2024/03/24 02:15:08;;;;;;;;;;;5.70;99.90;;;;;;5049033;28;19911;-66
2024/03/24 02:17:33;;;;;;;;;;;5.70;99.90;;;;;;5047793;28;19920;-67
2024/03/24 02:19:59;;;;;;;;;;;5.70;99.90;;;;;;5048476;28;19905;-67
2024/03/24 02:22:24;;;;;;;;;;;5.70;99.90;;;;;;5049047;28;19905;-66
2024/03/24 02:24:50;;;;;;;;;;;5.70;99.90;;;;;;5047731;28;19929;-67
2024/03/24 02:27:15;;;;;;;;;;;5.70;99.90;;;;;;5047249;28;19908;-66
2024/03/24 02:29:41;;;;;;;;;;;5.70;99.90;;;;;;5048839;28;19912;-67
2024/03/24 02:32:07;;;;;;;;;;;5.80;99.90;;;;;;5047893;28;19987;-67
2024/03/24 02:34:32;;;;;;;;;;;5.80;99.90;;;;;;5048399;28;19910;-67
2024/03/24 02:36:58;;;;;;;;;;;5.70;99.90;;;;;;5047840;28;19911;-67
2024/03/24 02:39:23;;;;;;;;;;;6.00;99.90;;;;;;5047853;28;20365;-67
2024/03/24 02:41:49;;;;;;;;;;;5.90;99.90;;;;;;5048478;28;19904;-67
2024/03/24 02:44:15;;;;;;;;;;;5.90;99.90;;;;;;5048164;28;19982;-67
2024/03/24 02:46:40;;;;;;;;;;;5.90;99.90;;;;;;5047209;28;20308;-66
2024/03/24 02:49:06;;;;;;;;;;;5.90;99.90;;;;;;5051155;28;19905;-67
2024/03/24 02:51:31;;;;;;;;;;;5.80;99.90;;;;;;5051507;28;19958;-67
2024/03/24 02:53:57;;;;;;;;;;;5.70;99.90;;;;;;5052011;28;19934;-66
2024/03/24 02:56:22;;;;;;;;;;;5.70;99.90;;;;;;5052775;28;19995;-67
2024/03/24 02:58:48;;;;;;;;;;;5.60;99.90;;;;;;5052075;28;20368;-67
2024/03/24 03:01:13;;;;;;;;;;;5.60;99.90;;;;;;5053364;28;19912;-67
2024/03/24 03:03:43;;;;;;;;;;;5.60;99.90;;;;;;5052466;28;20003;-67
2024/03/24 03:06:09;;;;;;;;;;;5.60;99.90;;;;;;5051701;28;19904;-67
2024/03/24 03:08:34;;;;;;;;;;;5.50;99.90;;;;;;5052708;28;19905;-67
2024/03/24 03:11:00;;;;;;;;;;;5.50;99.90;;;;;;5051172;28;19905;-67
2024/03/24 03:13:26;;;;;;;;;;;5.40;99.90;;;;;;5050537;28;19904;-67
2024/03/24 03:15:51;;;;;;;;;;;5.30;99.90;;;;;;5050504;28;20276;-66
2024/03/24 03:18:17;;;;;;;;;;;5.20;99.90;;;;;;5051241;28;20553;-67
2024/03/24 03:20:42;;;;;;;;;;;5.10;99.90;;;;;;5051132;28;19905;-67
2024/03/24 03:23:08;;;;;;;;;;;5.00;99.90;;;;;;5050736;28;19904;-67
2024/03/24 03:25:35;;;;;;;;;;;4.90;99.90;;;;;;5049068;28;19909;-66
2024/03/24 03:28:00;;;;;;;;;;;4.90;99.90;;;;;;5049144;28;19909;-67
2024/03/24 03:30:26;;;;;;;;;;;4.90;99.90;;;;;;5051623;28;19912;-68
2024/03/24 03:32:51;;;;;;;;;;;4.80;99.90;;;;;;5051140;28;19943;-68
2024/03/24 03:35:17;;;;;;;;;;;4.80;99.90;;;;;;5051474;28;19900;-68
2024/03/24 03:37:42;;;;;;;;;;;4.80;99.90;;;;;;5050443;28;19905;-68
2024/03/24 03:40:08;;;;;;;;;;;4.70;99.90;;;;;;5049824;28;20553;-67
2024/03/24 03:42:34;;;;;;;;;;;4.70;99.90;;;;;;5050608;28;19911;-68
2024/03/24 03:45:00;;;;;;;;;;;4.70;99.90;;;;;;5049843;28;19911;-68
2024/03/24 03:47:26;;;;;;;;;;;4.70;99.90;;;;;;5049184;28;19909;-67
2024/03/24 03:49:52;;;;;;;;;;;4.80;99.90;;;;;;5050859;28;20342;-68
2024/03/24 03:52:25;;;;;;;;;;;4.80;99.90;;;;;;5049979;28;19909;-68
2024/03/24 03:54:51;;;;;;;;;;;4.80;99.90;;;;;;5050176;28;19963;-67
2024/03/24 03:57:17;;;;;;;;;;;4.70;99.90;;;;;;5049896;28;19911;-68
2024/03/24 03:59:43;;;;;;;;;;;4.70;99.90;;;;;;5050279;28;19991;-67
2024/03/24 04:02:08;;;;;;;;;;;4.70;99.90;;;;;;5049922;28;19948;-67
2024/03/24 04:04:34;;;;;;;;;;;4.70;99.90;;;;;;5050534;28;20372;-67
2024/03/24 04:06:59;;;;;;;;;;;4.60;99.90;;;;;;5048976;28;19913;-68
2024/03/24 04:09:25;;;;;;;;;;;4.70;99.90;;;;;;5049900;28;20308;-68
2024/03/24 04:11:50;;;;;;;;;;;4.80;99.90;;;;;;5050468;28;19901;-67
2024/03/24 04:14:16;;;;;;;;;;;4.80;99.90;;;;;;5049581;28;19905;-67
2024/03/24 04:16:41;;;;;;;;;;;4.80;99.90;;;;;;5048736;28;19909;-67
2024/03/24 04:19:07;;;;;;;;;;;4.40;99.90;;;;;;5049964;28;20011;-67
2024/03/24 04:21:33;;;;;;;;;;;4.90;99.90;;;;;;5049049;28;19905;-67
2024/03/24 04:23:58;;;;;;;;;;;5.00;99.90;;;;;;5049720;28;20054;-67
2024/03/24 04:26:24;;;;;;;;;;;5.00;99.90;;;;;;5048751;28;19904;-67
2024/03/24 04:28:50;;;;;;;;;;;5.00;99.90;;;;;;5048974;28;19905;-66
2024/03/24 04:31:15;;;;;;;;;;;4.90;99.90;;;;;;5049755;28;20017;-67
2024/03/24 04:33:41;;;;;;;;;;;4.90;99.90;;;;;;5048923;28;19912;-67
2024/03/24 04:36:06;;;;;;;;;;;4.80;99.90;;;;;;5048177;28;19980;-67
2024/03/24 04:38:32;;;;;;;;;;;4.80;99.90;;;;;;5049597;28;19909;-66
2024/03/24 04:40:57;;;;;;;;;;;4.80;99.90;;;;;;5048775;28;19904;-67
2024/03/24 04:43:23;;;;;;;;;;;4.80;99.90;;;;;;5049226;28;19993;-68
2024/03/24 04:45:48;;;;;;;;;;;4.80;99.90;;;;;;5048543;28;19909;-67
2024/03/24 04:48:14;;;;;;;;;;;4.80;99.90;;;;;;5048498;28;19912;-68
2024/03/24 04:50:39;;;;;;;;;;;4.90;99.90;;;;;;5049409;28;19939;-68
2024/03/24 04:53:06;;;;;;;;;;;4.80;99.90;;;;;;5048543;28;19915;-68
2024/03/24 04:55:32;;;;;;;;;;;4.80;99.90;;;;;;5048454;28;19909;-68
2024/03/24 04:57:57;;;;;;;;;;;4.80;99.90;;;;;;5048589;28;19905;-68
2024/03/24 05:00:25;;;;;;;;;;;4.80;99.90;;;;;;5048558;28;20367;-69
2024/03/24 05:02:50;;;;;;;;;;;4.90;99.90;;;;;;5048375;28;20276;-67
2024/03/24 05:05:16;;;;;;;;;;;4.80;99.90;;;;;;5049114;28;19904;-69
2024/03/24 05:07:42;;;;;;;;;;;4.80;99.90;;;;;;5047546;28;19935;-68
2024/03/24 05:10:07;;;;;;;;;;;4.90;99.90;;;;;;5048520;28;19905;-69
2024/03/24 05:12:33;;;;;;;;;;;4.80;99.90;;;;;;5048890;28;19915;-68
2024/03/24 05:14:59;;;;;;;;;;;4.90;99.90;;;;;;5048345;28;19904;-68
2024/03/24 05:17:25;;;;;;;;;;;4.90;99.90;;;;;;5048255;28;19916;-68
2024/03/24 05:19:51;;;;;;;;;;;5.00;99.90;;;;;;5048521;28;20555;-69
2024/03/24 05:22:16;;;;;;;;;;;5.10;99.90;;;;;;5048052;28;19912;-69
2024/03/24 05:24:41;;;;;;;;;;;5.00;99.90;;;;;;5048858;28;19951;-69
2024/03/24 05:27:07;;;;;;;;;;;5.10;99.90;;;;;;5047300;28;19908;-67
2024/03/24 05:29:32;;;;;;;;;;;4.80;99.90;;;;;;5047955;28;19927;-67
2024/03/24 05:32:02;;;;;;;;;;;4.90;99.90;;;;;;5048624;28;19908;-67
2024/03/24 05:34:28;;;;;;;;;;;5.00;99.90;;;;;;5047932;28;19919;-67
2024/03/24 05:36:53;;;;;;;;;;;5.30;99.90;;;;;;5047190;28;19905;-67
2024/03/24 05:39:20;;;;;;;;;;;5.30;99.90;;;;;;5048772;28;20284;-67
2024/03/24 05:41:49;;;;;;;;;;;5.20;99.90;;;;;;5048239;28;19913;-67
2024/03/24 05:44:15;;;;;;;;;;;5.40;99.90;;;;;;5048786;28;19959;-67
2024/03/24 05:46:40;;;;;;;;;;;5.90;99.90;;;;;;5048020;28;19988;-68
2024/03/24 05:49:06;;;;;;;;;;;5.30;99.90;;;;;;5047573;28;19912;-68
2024/03/24 05:51:31;;;;;;;;;;;5.40;99.90;;;;;;5047851;28;19951;-67
2024/03/24 05:53:57;;;;;;;;;;;5.30;99.90;;;;;;5048499;28;19904;-67
2024/03/24 05:56:22;;;;;;;;;;;5.50;99.90;;;;;;5047051;28;19912;-67
2024/03/24 05:58:48;;;;;;;;;;;5.60;99.90;;;;;;5048064;28;19905;-67
2024/03/24 06:01:13;;;;;;;;;;;5.40;99.90;;;;;;5048149;28;20678;-66
2024/03/24 06:03:39;;;;;;;;;;;5.50;99.90;;;;;;5047548;28;19905;-66
2024/03/24 06:06:05;;;;;;;;;;;5.50;99.90;;;;;;5047733;28;19905;-66
2024/03/24 06:08:34;;;;;;;;;;;5.70;99.90;;;;;;5048910;28;19909;-67
2024/03/24 06:10:59;;;;;;;;;;;5.70;99.90;;;;;;5049413;28;19996;-67
2024/03/24 06:13:25;;;;;;;;;;;5.70;99.90;;;;;;5049918;28;19959;-67
2024/03/24 06:15:50;;;;;;;;;;;5.80;99.90;;;;;;5048328;28;19904;-68
2024/03/24 06:18:16;;;;;;;;;;;5.80;99.90;;;;;;5048395;28;20307;-67
2024/03/24 06:20:41;;;;;;;;;;;5.70;99.90;;;;;;5049529;28;19913;-67
2024/03/24 06:23:07;;;;;;;;;;;5.60;99.90;;;;;;5049687;28;19905;-67
2024/03/24 06:25:33;;;;;;;;;;;6.00;99.90;;;;;;5052688;28;19912;-67
2024/03/24 06:28:00;;;;;;;;;;;5.80;99.90;;;;;;5051360;28;20724;-66
2024/03/24 06:30:26;;;;;;;;;;;5.70;99.90;;;;;;5051335;28;19916;-66
2024/03/24 06:32:52;;;;;;;;;;;5.70;99.90;;;;;;5051420;28;19915;-67
2024/03/24 06:35:17;;;;;;;;;;;5.90;99.90;;;;;;5051774;28;19905;-66
2024/03/24 06:37:43;;;;;;;;;;;6.20;99.90;;;;;;5050442;28;20378;-66
2024/03/24 06:40:09;;;;;;;;;;;5.90;99.90;;;;;;5051684;28;19958;-66
2024/03/24 06:42:43;;;;;;;;;;;6.20;99.90;;;;;;5050756;28;19904;-66
2024/03/24 06:45:09;;;;;;;;;;;6.10;99.90;;;;;;5051000;28;19952;-66
2024/03/24 06:47:35;;;;;;;;;;;6.30;99.90;;;;;;5050089;28;19919;-66
2024/03/24 06:50:01;;;;;;;;;;;6.10;99.90;;;;;;5051595;28;19905;-66
2024/03/24 06:52:26;;;;;;;;;;;6.10;99.90;;;;;;5050885;28;19904;-66
2024/03/24 06:54:52;;;;;;;;;;;6.10;99.90;;;;;;5051174;28;20427;-67
2024/03/24 06:57:17;;;;;;;;;;;6.20;99.90;;;;;;5051056;28;19908;-66
2024/03/24 06:59:43;;;;;;;;;;;6.20;99.90;;;;;;5050756;28;19956;-66
2024/03/24 07:02:08;;;;;;;;;;;6.20;99.90;;;;;;5051326;28;19904;-67
2024/03/24 07:04:36;;;;;;;;;;;6.20;99.90;;;;;;5050843;28;19912;-67
2024/03/24 07:07:02;;;;;;;;;;;6.30;99.90;;;;;;5049855;28;20296;-67
2024/03/24 07:09:27;;;;;;;;;;;6.30;99.90;;;;;;5051295;28;19912;-67
2024/03/24 07:11:53;;;;;;;;;;;6.30;99.90;;;;;;5050590;28;19990;-67
2024/03/24 07:14:18;;;;;;;;;;;6.10;99.90;;;;;;5050467;28;19911;-66
2024/03/24 07:16:44;;;;;;;;;;;6.20;99.90;;;;;;5050378;28;19909;-67
2024/03/24 07:19:09;;;;;;;;;;;6.10;99.90;;;;;;5050630;28;19912;-67
2024/03/24 07:21:35;;;;;;;;;;;6.00;99.90;;;;;;5050565;28;19904;-67
2024/03/24 07:24:01;;;;;;;;;;;6.40;99.90;;;;;;5050955;28;20374;-68
2024/03/24 07:26:26;;;;;;;;;;;6.30;99.90;;;;;;5049253;28;19955;-68
2024/03/24 07:28:52;;;;;;;;;;;5.50;99.90;;;;;;5050784;28;19912;-67
2024/03/24 07:31:18;;;;;;;;;;;5.50;99.90;;;;;;5050246;28;20407;-68
2024/03/24 07:33:46;;;;;;;;;;;5.40;99.90;;;;;;5049631;28;19904;-68
2024/03/24 07:36:12;;;;;;;;;;;5.60;99.90;;;;;;5049254;28;19904;-67
2024/03/24 07:38:38;;;;;;;;;;;5.60;99.90;;;;;;5050241;28;20007;-67
2024/03/24 07:41:04;;;;;;;;;;;5.50;99.90;;;;;;5049886;28;19912;-67
2024/03/24 07:43:29;;;;;;;;;;;5.40;99.90;;;;;;5050672;28;19905;-66
2024/03/24 07:45:55;;;;;;;;;;;5.50;99.90;;;;;;5049296;28;20410;-67
2024/03/24 07:48:20;;;;;;;;;;;5.50;99.90;;;;;;5049608;28;19920;-66
2024/03/24 07:50:46;;;;;;;;;;;5.70;99.90;;;;;;5050515;28;19905;-67
2024/03/24 07:53:11;;;;;;;;;;;5.50;99.90;;;;;;5049793;28;19904;-67
2024/03/24 07:55:37;;;;;;;;;;;5.50;99.90;;;;;;5049991;28;19909;-68
2024/03/24 07:58:02;;;;;;;;;;;5.30;99.90;;;;;;5049460;28;20158;-67
2024/03/24 08:00:29;;;;;;;;;;;5.50;99.90;;;;;;5049523;28;19905;-67
2024/03/24 08:02:55;;;;;;;;;;;5.20;99.90;;;;;;5050146;28;19991;-68
2024/03/24 08:05:20;;;;;;;;;;;6.00;99.90;;;;;;5049667;28;20002;-67
2024/03/24 08:07:45;;;;;;;;;;;5.20;99.90;;;;;;5048595;28;20408;-68
2024/03/24 08:10:12;;;;;;;;;;;5.20;99.90;;;;;;5049875;28;19911;-68
2024/03/24 08:12:40;;;;;;;;;;;5.40;99.90;;;;;;5049045;28;19909;-68
2024/03/24 08:15:08;;;;;;;;;;;5.40;99.90;;;;;;5049574;28;19913;-67
2024/03/24 08:17:34;;;;;;;;;;;5.60;99.90;;;;;;5049302;28;19975;-67
2024/03/24 08:19:59;;;;;;;;;;;5.40;99.90;;;;;;5049555;28;19944;-68
2024/03/24 08:22:25;;;;;;;;;;;5.50;99.90;;;;;;5049376;28;20375;-67
2024/03/24 08:24:50;;;;;;;;;;;5.60;99.90;;;;;;5050218;28;19967;-67
2024/03/24 08:27:16;;;;;;;;;;;5.60;99.90;;;;;;5048265;28;19916;-68
2024/03/24 08:29:41;;;;;;;;;;;5.70;99.90;;;;;;5049121;28;19909;-67
2024/03/24 08:32:07;;;;;;;;;;;5.70;99.90;;;;;;5049641;28;19909;-66
2024/03/24 08:34:32;;;;;;;;;;;5.90;99.90;;;;;;5048807;28;19904;-67
2024/03/24 08:36:58;;;;;;;;;;;6.10;99.90;;;;;;5048845;28;19958;-67
2024/03/24 08:39:23;;;;;;;;;;;5.80;99.90;;;;;;5049184;28;20784;-67
2024/03/24 08:41:49;;;;;;;;;;;5.80;99.90;;;;;;5048873;28;19951;-67
2024/03/24 08:44:14;;;;;;;;;;;5.80;99.90;;;;;;5049443;28;19905;-67
2024/03/24 08:46:40;;;;;;;;;;;5.90;99.90;;;;;;5047620;28;19916;-66
2024/03/24 08:49:06;;;;;;;;;;;6.40;99.90;;;;;;5048650;28;20007;-67
2024/03/24 08:51:31;;;;;;;;;;;6.10;99.90;;;;;;5049318;28;19989;-67
2024/03/24 08:53:57;;;;;;;;;;;6.70;99.90;;;;;;5048554;28;19904;-67
2024/03/24 08:56:22;;;;;;;;;;;6.30;99.90;;;;;;5048261;28;19904;-68
2024/03/24 08:58:48;;;;;;;;;;;7.20;99.90;;;;;;5048923;28;20458;-67
2024/03/24 09:01:13;;;;;;;;;;;7.40;99.90;;;;;;5048563;28;19915;-67
2024/03/24 09:03:39;;;;;;;;;;;6.80;99.90;;;;;;5049224;28;20349;-67
2024/03/24 09:06:04;;;;;;;;;;;6.70;99.90;;;;;;5047956;28;19912;-67
2024/03/24 09:08:30;;;;;;;;;;;7.00;99.90;;;;;;5048367;28;20364;-67
2024/03/24 09:10:57;;;;;;;;;;;6.80;99.90;;;;;;5049060;28;19912;-67
2024/03/24 09:13:22;;;;;;;;;;;7.50;99.90;;;;;;5048291;28;19939;-66
2024/03/24 09:15:48;;;;;;;;;;;7.00;91.00;;;;;;5047643;28;20349;-67
2024/03/24 09:18:13;;;;;;;;;;;6.80;99.60;;;;;;5048879;28;19955;-66
2024/03/24 09:20:39;;;;;;;;;;;7.40;95.90;;;;;;5048173;28;19904;-66
2024/03/24 09:23:04;;;;;;;;;;;7.50;99.90;;;;;;5048614;28;19948;-67
2024/03/24 09:25:33;;;;;;;;;;;6.90;99.90;;;;;;5048406;28;19928;-66
2024/03/24 09:27:58;;;;;;;;;;;7.10;99.90;;;;;;5047210;28;19951;-66
2024/03/24 09:30:25;;;;;;;;;;;6.90;99.90;;;;;;5048538;28;19947;-68
2024/03/24 09:32:51;;;;;;;;;;;7.10;99.90;;;;;;5048365;28;19909;-66
2024/03/24 09:35:17;;;;;;;;;;;7.20;99.90;;;;;;5047941;28;19905;-68
2024/03/24 09:37:43;;;;;;;;;;;7.50;99.90;;;;;;5048009;28;20012;-68
2024/03/24 09:40:09;;;;;;;;;;;7.60;99.90;;;;;;5048239;28;19916;-66
2024/03/24 09:42:35;;;;;;;;;;;7.70;99.90;;;;;;5047288;28;19904;-66
2024/03/24 09:45:03;;;;;;;;;;;7.90;98.20;;;;;;5045773;28;19935;-66
2024/03/24 09:47:29;;;;;;;;;;;7.90;97.10;;;;;;5047301;28;19908;-67
2024/03/24 09:49:55;;;;;;;;;;;8.10;94.50;;;;;;5047922;28;20306;-66
2024/03/24 09:52:22;;;;;;;;;;;7.70;97.50;;;;;;5048014;28;19954;-66
2024/03/24 09:54:48;;;;;;;;;;;7.90;90.50;;;;;;5048092;28;20651;-67
2024/03/24 09:57:13;;;;;;;;;;;7.90;90.10;;;;;;5047124;28;20054;-67
2024/03/24 09:59:39;;;;;;;;;;;8.20;99.90;;;;;;5051985;28;20427;-67
2024/03/24 10:02:07;;;;;;;;;;;8.10;97.80;;;;;;5051893;28;19909;-67
2024/03/24 10:04:32;;;;;;;;;;;8.20;95.70;;;;;;5051583;28;19947;-66
2024/03/24 10:06:58;;;;;;;;;;;8.20;92.00;;;;;;5050884;28;19944;-67
2024/03/24 10:09:23;;;;;;;;;;;8.60;58.60;;;;;;5051711;28;19908;-66
2024/03/24 10:11:49;;;;;;;;;;;8.70;47.00;;;;;;5051800;28;19909;-68
2024/03/24 10:14:23;;;;;;;;;;;8.70;57.80;;;;;;5050298;28;20327;-67
2024/03/24 10:16:49;;;;;;;;;;;;;;;;;;5051103;28;19920;-66
2024/03/24 10:19:15;;;;;;;;;;;8.80;63.20;;;;;;5051559;28;19908;-67
2024/03/24 10:21:41;;;;;;;;;;;8.90;41.30;;;;;;5051721;28;20631;-67
2024/03/24 10:24:07;;;;;;;;;;;8.90;24.70;;;;;;5051034;28;19909;-67
2024/03/24 10:26:36;;;;;;;;;;;8.80;42.90;;;;;;5050735;28;19962;-67
2024/03/24 10:29:05;;;;;;;;;;;9.00;35.70;;;;;;5051351;28;19904;-67
2024/03/24 10:31:33;;;;;;;;;;;9.00;36.30;;;;;;5051858;28;20108;-72
2024/03/24 10:34:01;;;;;;;;;;;8.70;47.30;;;;;;5048736;28;19948;-68
2024/03/24 10:36:29;;;;;;;;;;;9.10;37.00;;;;;;5049283;28;20283;-69
2024/03/24 10:38:54;;;;;;;;;;;8.90;31.70;;;;;;5052009;28;19909;-65
2024/03/24 10:41:21;;;;;;;;;;;9.00;33.70;;;;;;5051375;28;19999;-65
2024/03/24 10:43:47;;;;;;;;;;;9.00;33.80;;;;;;5050546;28;19920;-69
2024/03/24 10:46:13;;;;;;;;;;;9.00;40.00;;;;;;5051408;28;19932;-66
2024/03/24 10:48:43;;;;;;;;;;;9.10;41.10;;;;;;5050837;28;19947;-66
2024/03/24 10:51:11;;;;;;;;;;;9.10;25.70;;;;;;5050495;28;20015;-69
2024/03/24 10:53:37;;;;;;;;;;;9.40;22.40;;;;;;5051551;28;20007;-67
2024/03/24 10:56:04;;;;;;;;;;;9.40;19.30;;;;;;5049576;28;19905;-66
2024/03/24 10:58:30;;;;;;;;;;;9.40;15.90;;;;;;5049123;28;19908;-68
2024/03/24 11:00:55;;;;;;;;;;;9.40;9.20;;;;;;5050880;28;19915;-66
2024/03/24 11:03:22;;;;;;;;;;;9.50;1.00;;;;;;5049818;28;19913;-67
2024/03/24 11:05:48;;;;;;;;;;;9.70;1.00;;;;;;5049842;28;19984;-66
2024/03/24 11:08:15;;;;;;;;;;;9.80;3.80;;;;;;5049733;28;19920;-66
2024/03/24 11:10:56;;;;;;;;;;;9.60;1.00;;;;;;5050218;28;19983;-68
2024/03/24 11:13:27;;;;;;;;;;;9.70;1.00;;;;;;5048170;28;19909;-68
2024/03/24 11:15:53;;;;;;;;;;;9.90;1.00;;;;;;5049885;28;19905;-66
2024/03/24 11:18:28;;;;;;;;;;;10.00;1.00;;;;;;5050628;28;19916;-66
2024/03/24 11:20:55;;;;;;;;;;;10.00;1.00;;;;;;5054531;28;20379;-66
2024/03/24 11:23:34;;;;;;;;;;;10.00;1.00;;;;;;5054691;28;19916;-66
2024/03/24 11:26:01;;;;;;;;;;;10.10;1.00;;;;;;5054495;28;19908;-67
2024/03/24 11:28:42;;;;;;;;;;;10.00;1.00;;;;;;5054664;28;19936;-68
2024/03/24 11:31:20;;;;;;;;;;;9.80;1.00;;;;;;5054756;28;19909;-67
2024/03/24 11:34:05;;;;;;;;;;;9.80;99.90;;;;;;5055131;28;20261;-68
2024/03/24 11:36:34;;;;;;;;;;;9.80;1.00;;;;;;5053919;28;19915;-68
2024/03/24 11:39:00;;;;;;;;;;;9.90;1.00;;;;;;5054133;28;19909;-67
2024/03/24 11:41:26;;;;;;;;;;;9.90;99.90;;;;;;5054258;28;19905;-67
2024/03/24 11:44:01;;;;;;;;;;;9.90;1.00;;;;;;5053371;28;19915;-68
2024/03/24 11:46:27;;;;;;;;;;;9.70;1.00;;;;;;5054016;28;19955;-67
2024/03/24 11:48:53;;;;;;;;;;;9.80;1.00;;;;;;5054213;28;19944;-67
2024/03/24 11:51:22;;;;;;;;;;;9.80;1.00;;;;;;5053760;28;19905;-68
2024/03/24 11:53:51;;;;;;;;;;;9.80;99.90;;;;;;5053855;28;19904;-67
2024/03/24 11:56:18;;;;;;;;;;;9.90;1.00;;;;;;5053845;28;19905;-68
2024/03/24 11:58:46;;;;;;;;;;;9.50;1.00;;;;;;5053465;28;19954;-68
2024/03/24 12:01:12;;;;;;;;;;;9.40;48.70;;;;;;5054084;28;19912;-68
2024/03/24 12:03:37;;;;;;;;;;;9.20;1.00;;;;;;5053903;28;19931;-68
2024/03/24 12:06:04;;;;;;;;;;;9.20;1.00;;;;;;5053286;28;20372;-67
2024/03/24 12:08:29;;;;;;;;;;;9.30;99.90;;;;;;5053606;28;19959;-67
2024/03/24 12:10:55;;;;;;;;;;;9.30;99.90;;;;;;5053785;28;19955;-68
2024/03/24 12:13:20;;;;;;;;;;;9.30;99.90;;;;;;5053261;28;19915;-67
2024/03/24 12:15:46;;;;;;;;;;;9.30;1.00;;;;;;5053485;28;19905;-65
2024/03/24 12:18:12;;;;;;;;;;;9.40;9.70;;;;;;5053596;28;19913;-65
2024/03/24 12:20:38;;;;;;;;;;;9.50;1.00;;;;;;5052864;28;19909;-66
2024/03/24 12:23:04;;;;;;;;;;;9.80;1.00;;;;;;5053577;28;19931;-66
2024/03/24 12:25:29;;;;;;;;;;;9.90;1.00;;;;;;5053505;28;19909;-66
2024/03/24 12:27:55;;;;;;;;;;;9.90;1.00;;;;;;5052802;28;19909;-66
2024/03/24 12:30:21;;;;;;;;;;;9.90;1.00;;;;;;5053361;28;20372;-66
2024/03/24 12:32:47;;;;;;;;;;;10.00;1.00;;;;;;5053289;28;20276;-66
2024/03/24 12:35:14;;;;;;;;;;;9.90;1.00;;;;;;5052952;28;19904;-67
2024/03/24 12:37:39;;;;;;;;;;;9.90;1.00;;;;;;5052872;28;19912;-66
2024/03/24 12:40:05;;;;;;;;;;;9.90;1.00;;;;;;5053204;28;19908;-66
2024/03/24 12:42:33;;;;;;;;;;;9.90;1.00;;;;;;5052639;28;19909;-66
2024/03/24 12:45:08;;;;;;;;;;;10.00;1.00;;;;;;5053062;28;19959;-66
2024/03/24 12:47:34;;;;;;;;;;;9.50;1.00;;;;;;5052727;28;19909;-65
2024/03/24 12:49:59;;;;;;;;;;;10.10;1.00;;;;;;5052546;28;20334;-67
2024/03/24 12:52:26;;;;;;;;;;;10.10;1.00;;;;;;5052773;28;19944;-67
2024/03/24 12:54:51;;;;;;;;;;;10.10;1.00;;;;;;5052890;28;20353;-65
2024/03/24 12:57:17;;;;;;;;;;;10.10;1.00;;;;;;5052105;28;19905;-66
2024/03/24 13:00:05;;;;;;;;;;;10.00;1.00;;;;;;5052865;28;20349;-65
2024/03/24 13:02:31;;;;;;;;;;;10.00;1.00;;;;;;5052723;28;19962;-66
2024/03/24 13:04:57;;;;;;;;;;;10.20;1.00;;;;;;5052193;28;19912;-65
2024/03/24 13:07:23;;;;;;;;;;;10.60;1.00;;;;;;5052376;28;19908;-66
2024/03/24 13:09:50;;;;;;;;;;;10.90;1.00;;;;;;5052809;28;19948;-65
2024/03/24 13:12:15;;;;;;;;;;;10.70;1.00;;;;;;5052126;28;19904;-68
2024/03/24 13:14:41;;;;;;;;;;;10.70;1.00;;;;;;5052617;28;19915;-65
2024/03/24 13:17:15;;;;;;;;;;;10.60;1.00;;;;;;5052098;28;19913;-65
2024/03/24 13:19:44;;;;;;;;;;;10.40;1.00;;;;;;5052184;28;19939;-65
2024/03/24 13:22:09;;;;;;;;;;;10.30;1.00;;;;;;5052576;28;19913;-65
2024/03/24 13:24:36;;;;;;;;;;;10.20;1.00;;;;;;5052323;28;19905;-66
2024/03/24 13:27:03;;;;;;;;;;;10.30;1.00;;;;;;5051433;28;19978;-67
2024/03/24 13:29:29;;;;;;;;;;;10.30;1.00;;;;;;5052344;28;19909;-67
2024/03/24 13:31:54;;;;;;;;;;;10.50;1.00;;;;;;5052416;28;19908;-66
2024/03/24 13:34:20;;;;;;;;;;;10.50;1.00;;;;;;5051611;28;19913;-66
2024/03/24 13:36:56;;;;;;;;;;;10.00;1.00;;;;;;5052100;28;19936;-66
2024/03/24 13:39:36;;;;;;;;;;;9.80;99.90;;;;;;5052301;28;19912;-66
2024/03/24 13:42:10;;;;;;;;;;;9.30;1.00;;;;;;5051655;28;20050;-66
2024/03/24 13:44:44;;;;;;;;;;;8.90;1.00;;;;;;5052129;28;19960;-65
2024/03/24 13:47:28;;;;;;;;;;;8.70;1.00;;;;;;5051704;28;20408;-66
2024/03/24 13:49:55;;;;;;;;;;;9.10;99.90;;;;;;5051763;28;20316;-66
2024/03/24 13:52:21;;;;;;;;;;;10.30;1.20;;;;;;5052049;28;19923;-66
2024/03/24 13:54:48;;;;;;;;;;;11.10;1.00;;;;;;5051923;28;19905;-66
2024/03/24 13:57:14;;;;;;;;;;;11.10;1.00;;;;;;5051508;28;19913;-65
2024/03/24 13:59:39;;;;;;;;;;;10.80;1.00;;;;;;5052126;28;19914;-66
2024/03/24 14:02:07;;;;;;;;;;;11.00;1.00;;;;;;5051971;28;20043;-66
2024/03/24 14:04:32;;;;;;;;;;;12.10;1.00;;;;;;5051487;28;19905;-67
2024/03/24 14:06:58;;;;;;;;;;;13.10;1.00;;;;;;5051659;28;19930;-66
2024/03/24 14:09:24;;;;;;;;;;;13.00;1.00;;;;;;5051828;28;19908;-66
2024/03/24 14:11:50;;;;;;;;;;;13.10;1.00;;;;;;5051757;28;19911;-65
2024/03/24 14:14:34;;;;;;;;;;;13.00;1.00;;;;;;5051889;28;19905;-66
2024/03/24 14:17:12;;;;;;;;;;;13.20;1.00;;;;;;5051365;28;19995;-66
2024/03/24 14:19:40;;;;;;;;;;;13.10;1.00;;;;;;5051478;28;19974;-66
2024/03/24 14:22:10;;;;;;;;;;;12.60;1.00;;;;;;5051883;28;20332;-66
2024/03/24 14:24:38;;;;;;;;;;;11.90;1.00;;;;;;5051673;28;19912;-65
2024/03/24 14:27:03;;;;;;;;;;;10.70;1.00;;;;;;5051092;28;20312;-66